ADDS METAR Data INFO
IDs: Format: Raw Decoded Include TAF

Data at: 0500 UTC 23 May 2017

KTFP 230455Z AUTO 04014KT 5SM BR OVC022 26/24 A2986 RMK AO2 T02550236
KTFP 230435Z AUTO 05012KT 10SM BKN022 26/24 A2986 RMK AO2 T02570239
KTFP 230415Z AUTO 04010KT 5SM BR SCT014 SCT018 26/24 A2986 RMK AO2 T02560240
KTFP 230355Z AUTO 36005KT 10SM BKN012 BKN018 25/24 A2986 RMK AO2 T02530237
KTFP 230335Z AUTO 10SM SCT020 25/24 A2984 RMK AO2 T02510235
KTFP 230315Z AUTO 10SM CLR 25/24 A2984 RMK AO2 T02510235
KTFP 230255Z AUTO 10SM CLR 25/23 A2982 RMK AO2 T02510234
KTFP 230235Z AUTO 07004KT 10SM CLR 26/23 A2981 RMK AO2 T02610234
KTFP 230215Z AUTO 05009KT 10SM CLR 27/24 A2981 RMK AO2 T02660235
KTFP 230155Z AUTO 04007KT 10SM -RA CLR 27/23 A2981 RMK AO2 T02720234
KTFP 230135Z AUTO 03003KT 5SM HZ CLR 28/24 A2981 RMK AO2 T02750235
KTFP 230115Z AUTO 01003KT 10SM CLR 28/24 A2980 RMK AO2 T02790236
KTFP 230055Z AUTO 36003KT 10SM CLR 28/24 A2980 RMK AO2 T02830236
KTFP 230035Z AUTO 01004KT 5SM HZ CLR 29/24 A2980 RMK AO2 T02860236
KTFP 230015Z AUTO 02005KT 4SM HZ CLR 29/24 A2981 RMK AO2 T02880235
KTFP 222355Z AUTO 02006KT 7SM SCT070 29/24 A2980 RMK AO2 T02900236
KTFP 222335Z AUTO 04009KT 10SM BKN070 BKN090 BKN110 28/24 A2981 RMK AO2 T02830235
KTFP 222315Z AUTO 06005KT 10SM OVC070 28/23 A2982 RMK AO2 T02820232
KTFP 222255Z AUTO 06005KT 10SM OVC070 28/23 A2982 RMK AO2 T02840232
KTFP 222235Z AUTO 06006KT 10SM OVC070 29/23 A2982 RMK AO2 T02850231
KTFP 222215Z AUTO 05005KT 10SM OVC070 28/23 A2983 RMK AO2 T02830230
KTFP 222155Z AUTO 05005KT 10SM OVC060 29/23 A2984 RMK AO2 T02850230
KTFP 222135Z AUTO 16003KT 10SM SCT019 OVC060 29/23 A2984 RMK AO2 T02850232
KTFP 222115Z AUTO 10003KT 10SM SCT019 OVC060 29/24 A2985 RMK AO2 LTG DSNT SE T02870235
KTFP 222055Z AUTO 13004KT 10SM SCT019 OVC060 29/23 A2985 RMK AO2 T02890232
KTFP 222035Z AUTO 03004KT 10SM OVC070 29/23 A2985 RMK AO2 T02900230
KTFP 222015Z AUTO 00000KT 10SM OVC070 29/23 A2986 RMK AO2 LTG DSNT SE T02890233
KTFP 221955Z AUTO 08004KT 10SM SCT060 OVC070 29/23 A2986 RMK AO2 T02870233
KTFP 221935Z AUTO 06005KT 10SM OVC060 28/23 A2987 RMK AO2 T02790232
KTFP 221915Z AUTO 10003KT 10SM SCT009 BKN060 OVC070 27/24 A2988 RMK AO2 T02730236
KTFP 221855Z AUTO 08006KT 10SM SCT009 OVC050 27/24 A2989 RMK AO2 T02650236
KTFP 221835Z AUTO 00000KT 10SM SCT009 OVC050 26/24 A2989 RMK AO2 T02630238
KTFP 221815Z AUTO 08006KT 10SM SCT009 SCT014 OVC050 26/24 A2990 RMK AO2 LTG DSNT E T02630241
KTFP 221755Z AUTO 08008KT 7SM -RA SCT009 BKN017 OVC060 27/24 A2991 RMK AO2 LTG DSNT SE T02650239
KTFP 221735Z AUTO 09005KT 10SM VCTS SCT009 BKN018 OVC050 27/24 A2992 RMK AO2 LTG DSNT SE T02670236
KTFP 221715Z AUTO 11005G08KT 10SM SCT009 BKN022 OVC055 27/24 A2992 RMK AO2 T02680236
KTFP 221655Z AUTO 05011KT 10SM SCT015 BKN020 OVC049 27/23 A2992 RMK AO2 LTG DSNT SE T02670231
KTFP 221635Z AUTO 05009KT 10SM BKN014 OVC047 27/23 A2992 RMK AO2 T02670231
KTFP 221615Z AUTO 08011G16KT 10SM OVC012 27/24 A2992 RMK AO2 LTG DSNT SE T02710236
KTFP 221555Z AUTO 06015KT 10SM OVC010 27/24 A2992 RMK AO2 T02700238
KTFP 221535Z AUTO 06014KT 10SM OVC008 27/24 A2992 RMK AO2 LTG DSNT E T02670238
KTFP 221515Z AUTO 05014KT 10SM OVC008 26/24 A2992 RMK AO2 LTG DSNT E AND SE T02620237
KTFP 221455Z AUTO 03015G19KT 10SM BKN008 OVC050 26/23 A2993 RMK AO2 T02570234
KTFP 221435Z AUTO 04018G22KT 10SM SCT006 BKN050 OVC060 25/23 A2992 RMK AO2 LTG DSNT E AND SE T02490231
KTFP 221415Z AUTO 03014G21KT 10SM SCT008 BKN050 OVC100 24/23 A2993 RMK AO2 LTG DSNT E T02400226
KTFP 221355Z AUTO 03014G19KT 10SM SCT008 BKN047 OVC100 24/22 A2992 RMK AO2 LTG DSNT E T02350221
KTFP 221335Z AUTO 04016G23KT 10SM OVC008 23/22 A2992 RMK AO2 LTG DSNT E T02330220
KTFP 221315Z AUTO 05008KT 10SM SCT008 SCT015 OVC037 23/22 A2994 RMK AO2 LTG DSNT E T02340220
KTFP 221255Z AUTO 03014G21KT 10SM SCT008 BKN035 OVC043 23/22 A2992 RMK AO2 LTG DSNT E AND SE P0001 T02310216
KTFP 221235Z AUTO 03013G23KT 10SM SCT008 OVC033 23/21 A2992 RMK AO2 LTG DSNT E P0001 T02280212
KTFP 221215Z AUTO 03015G24KT 10SM -RA OVC031 23/21 A2991 RMK AO2 LTG DSNT E AND S P0001 T02270210
KTFP 221155Z AUTO 02016G21KT 10SM BKN028 OVC036 23/21 A2990 RMK AO2 LTG DSNT E THRU S T02250207
KTFP 221140Z AUTO 02018G21KT 10SM SCT025 BKN034 OVC050 22/21 A2990 RMK AO2 LTG DSNT E AND S T02220206
KTFP 221115Z AUTO 36017G23KT 10SM DZ SCT005 BKN039 OVC048 22/21 A2989 RMK AO2 LTG DSNT NE AND E T02180205
KTFP 221055Z AUTO 34021G30KT 7SM -VCTSRA BKN005 BKN015 OVC029 23/22 A2990 RMK AO2 LTG DSNT NE AND E P0005 T02310220
KTFP 221035Z AUTO 32013G22KT 5SM RA BKN003 OVC010 24/23 A2990 RMK AO2 LTG DSNT NE AND E P0003 T02440234
KTFP 221015Z AUTO 34011G21KT 7SM SCT003 BKN008 OVC011 25/24 A2991 RMK AO2 LTG DSNT N THRU E T02500238
KTFP 220955Z AUTO 32009KT 7SM -RA BKN008 OVC011 26/25 A2990 RMK AO2 LTG DSNT NW THRU E T02620249
KTFP 220935Z AUTO 23004KT 7SM TS BKN008 BKN014 OVC019 27/26 A2989 RMK AO2 LTG DSNT NW THRU NE T02680256
KTFP 220915Z AUTO 21005KT 7SM BKN009 BKN023 OVC065 27/26 A2989 RMK AO2 LTG DSNT NE AND NW T02670256
KTFP 220855Z AUTO 20006KT 7SM -RA SCT009 BKN015 OVC022 27/26 A2989 RMK AO2 LTG DSNT NW THRU E T02680257
KTFP 220835Z AUTO 20005KT 7SM SCT008 BKN012 OVC022 27/26 A2989 RMK AO2 LTG DSNT NE AND E T02670257
KTFP 220815Z AUTO 17005KT 5SM RA BKN009 BKN018 OVC037 27/26 A2990 RMK AO2 LTG DSNT NW THRU E T02680258
KTFP 220755Z AUTO 16003KT 7SM SCT010 BKN017 OVC032 27/26 A2991 RMK AO2 LTG DSNT NE AND E P0009 T02670257
KTFP 220735Z AUTO 00000KT 5SM -RA SCT015 SCT023 BKN040 27/26 A2992 RMK AO2 LTG DSNT NE AND E P0009 T02660256
KTFP 220715Z AUTO 07005KT 4SM +RA SCT007 SCT012 SCT022 27/26 A2995 RMK AO2 LTG DSNT NE P0006 T02670255
KTFP 220655Z AUTO 06008KT 7SM RA BKN007 BKN012 OVC022 27/26 A2995 RMK AO2 LTG DSNT NE P0003 T02670255
KTFP 220635Z AUTO 06011KT 7SM -RA BKN007 BKN013 OVC029 27/25 A2996 RMK AO2 P0001 T02700254
KTFP 220615Z AUTO 06013KT 7SM SCT012 BKN017 OVC028 27/25 A2996 RMK AO2 T02730252
KTFP 220555Z AUTO 06014KT 5SM BR SCT009 BKN013 OVC027 27/25 A2996 RMK AO2 T02740252
KTFP 220535Z AUTO 06013KT 5SM BR BKN009 BKN015 OVC041 27/25 A2994 RMK AO2 T02730252
KTFP 220515Z AUTO 06013KT 7SM SCT009 BKN013 OVC030 27/25 A2994 RMK AO2 T02730252
KTFP 220455Z AUTO 06014KT 5SM BR BKN009 BKN013 OVC033 27/25 A2995 RMK AO2 T02730252
KTFP 220435Z AUTO 07013KT 5SM BR BKN009 BKN016 27/25 A2995 RMK AO2 T02730251
KTFP 220415Z AUTO 06014KT 5SM BR SCT009 SCT019 SCT025 27/25 A2994 RMK AO2 LTG DSNT NE T02740250
KTFP 220355Z AUTO 06017KT 7SM SCT008 BKN015 OVC026 28/25 A2995 RMK AO2 T02750250
KTFP 220335Z AUTO 05013KT 7SM BKN010 BKN014 OVC019 28/25 A2996 RMK AO2 T02750251
KTFP 220315Z AUTO 05013KT 10SM BKN010 BKN016 BKN021 28/25 A2997 RMK AO2 T02750251
KTFP 220255Z AUTO 04014KT 10SM BKN010 OVC013 28/25 A2997 RMK AO2 LTG DSNT S T02750251
KTFP 220235Z AUTO 06009KT 10SM BKN010 28/25 A2997 RMK AO2 LTG DSNT E T02750250
KTFP 220215Z AUTO 06021KT 10SM SCT010 28/25 A2992 RMK AO2 T02750248
KTFP 220155Z AUTO 06012KT 10SM BKN010 28/25 A2996 RMK AO2 LTG DSNT W T02750248
KTFP 220135Z AUTO 06020G24KT 10SM SCT010 SCT015 27/25 A2991 RMK AO2 LTG DSNT SW AND W T02740247
KTFP 220115Z AUTO 07015KT 10SM SCT010 27/25 A2992 RMK AO2 LTG DSNT SW T02730247
KTFP 220055Z AUTO 06018G21KT 10SM SCT010 SCT014 27/25 A2989 RMK AO2 LTG DSNT SW AND W T02740247
KTFP 220035Z AUTO 06016G20KT 10SM SCT010 28/25 A2989 RMK AO2 T02750247
KTFP 220015Z AUTO 06016KT 10SM CLR 28/25 A2991 RMK AO2 LTG DSNT N AND NE T02750247
KTFP 212355Z AUTO 07017G20KT 10SM CLR 28/25 A2991 RMK AO2 T02780247
KTFP 212335Z AUTO 06018G23KT 10SM CLR 28/24 A2989 RMK AO2 LTG DSNT W T02820244
KTFP 212315Z AUTO 06011KT 10SM CLR 29/25 A2993 RMK AO2 LTG DSNT N T02850246
KTFP 212255Z AUTO 07012KT 10SM CLR 29/25 A2992 RMK AO2 LTG DSNT SW T02870245
KTFP 212235Z AUTO 07010G16KT 10SM CLR 29/24 A2991 RMK AO2 LTG DSNT E T02880244
KTFP 212215Z AUTO 09009KT 10SM CLR 29/24 A2991 RMK AO2 LTG DSNT W T02900242
KTFP 212155Z AUTO 08012KT 10SM CLR 29/24 A2990 RMK AO2 T02920244
KTFP 212135Z AUTO 09010KT 10SM SCT014 30/24 A2992 RMK AO2 T02960243
KTFP 212115Z AUTO 09012G18KT 10SM CLR 30/24 A2991 RMK AO2 LTG DSNT NE AND W T03020241
KTFP 212055Z AUTO 11010G17KT 10SM SCT018 SCT024 31/24 A2990 RMK AO2 LTG DSNT NW T03080238
KTFP 212035Z AUTO 08014G22KT 10SM SCT018 SCT024 31/24 A2990 RMK AO2 LTG DSNT NE T03100240
KTFP 212015Z AUTO 09013G18KT 10SM SCT018 SCT025 31/24 A2992 RMK AO2 T03090242
KTFP 211955Z AUTO 08017G22KT 10SM SCT023 31/24 A2993 RMK AO2 T03090241
KTFP 211935Z AUTO 09012G20KT 7SM SCT022 31/24 A2994 RMK AO2 T03100237
KTFP 211915Z AUTO 09012G17KT 7SM SCT016 31/24 A2995 RMK AO2 LTG DSNT E T03070238
KTFP 211855Z AUTO 08014KT 5SM HZ SCT016 SCT022 30/24 A2996 RMK AO2 LTG DSNT N T03010243
KTFP 211835Z AUTO 10009G19KT 5SM HZ SCT016 BKN022 BKN027 30/24 A2996 RMK AO2 LTG DSNT N T03030242
KTFP 211815Z AUTO 10013KT 7SM SCT018 BKN023 BKN028 30/24 A2996 RMK AO2 LTG DSNT N T03040241
KTFP 211755Z AUTO 08015G18KT 7SM SCT018 BKN027 BKN036 31/24 A2997 RMK AO2 LTG DSNT N T03070243
KTFP 211735Z AUTO 08013G19KT 7SM SCT018 BKN027 BKN037 31/24 A2997 RMK AO2 LTG DSNT NE T03110243
KTFP 211715Z AUTO 09011G16KT 10SM SCT018 31/24 A2997 RMK AO2 T03120244


Page loaded:  05:00 UTC  |   10:00 PM Pacific  |   11:00 PM Mountain  |   12:00 AM Central  |   01:00 AM Eastern

 

ADVISORIES

FORECASTS

FORECASTS

OBSERVATIONS

USER TOOLS

ABOUT US